sensor_id;sensor_type;location;lat;lon;timestamp;P1;durP1;ratioP1;P2;durP2;ratioP2
11498;SDS011;5806;48.748;9.278;2024-01-30T00:01:38;10.27;;;6.80;;
11498;SDS011;5806;48.748;9.278;2024-01-30T00:04:05;7.10;;;5.70;;
11498;SDS011;5806;48.748;9.278;2024-01-30T00:06:33;9.20;;;6.20;;
11498;SDS011;5806;48.748;9.278;2024-01-30T00:09:00;8.73;;;6.43;;
11498;SDS011;5806;48.748;9.278;2024-01-30T00:11:28;8.67;;;6.33;;
11498;SDS011;5806;48.748;9.278;2024-01-30T00:13:55;9.37;;;7.60;;
11498;SDS011;5806;48.748;9.278;2024-01-30T00:16:23;12.57;;;6.70;;
11498;SDS011;5806;48.748;9.278;2024-01-30T00:18:51;9.07;;;6.80;;
11498;SDS011;5806;48.748;9.278;2024-01-30T00:21:20;10.03;;;7.03;;
11498;SDS011;5806;48.748;9.278;2024-01-30T00:23:47;7.67;;;6.43;;
11498;SDS011;5806;48.748;9.278;2024-01-30T00:26:15;11.60;;;7.13;;
11498;SDS011;5806;48.748;9.278;2024-01-30T00:28:42;10.77;;;7.57;;
11498;SDS011;5806;48.748;9.278;2024-01-30T00:31:10;11.13;;;7.63;;
11498;SDS011;5806;48.748;9.278;2024-01-30T00:33:40;9.27;;;7.60;;
11498;SDS011;5806;48.748;9.278;2024-01-30T00:36:08;11.60;;;7.67;;
11498;SDS011;5806;48.748;9.278;2024-01-30T00:38:36;10.10;;;6.50;;
11498;SDS011;5806;48.748;9.278;2024-01-30T00:41:04;9.00;;;6.87;;
11498;SDS011;5806;48.748;9.278;2024-01-30T00:43:31;8.97;;;7.00;;
11498;SDS011;5806;48.748;9.278;2024-01-30T00:45:59;10.30;;;7.17;;
11498;SDS011;5806;48.748;9.278;2024-01-30T00:48:26;8.83;;;7.07;;
11498;SDS011;5806;48.748;9.278;2024-01-30T00:50:54;12.17;;;7.00;;
11498;SDS011;5806;48.748;9.278;2024-01-30T00:53:21;8.27;;;6.70;;
11498;SDS011;5806;48.748;9.278;2024-01-30T00:55:49;10.87;;;6.80;;
11498;SDS011;5806;48.748;9.278;2024-01-30T00:58:16;9.40;;;7.37;;
11498;SDS011;5806;48.748;9.278;2024-01-30T01:00:44;9.93;;;6.93;;
11498;SDS011;5806;48.748;9.278;2024-01-30T01:03:12;10.20;;;6.50;;
11498;SDS011;5806;48.748;9.278;2024-01-30T01:05:39;10.87;;;7.17;;
11498;SDS011;5806;48.748;9.278;2024-01-30T01:08:07;8.27;;;6.13;;
11498;SDS011;5806;48.748;9.278;2024-01-30T01:10:34;8.23;;;6.70;;
11498;SDS011;5806;48.748;9.278;2024-01-30T01:13:02;11.30;;;7.40;;
11498;SDS011;5806;48.748;9.278;2024-01-30T01:15:29;8.70;;;7.37;;
11498;SDS011;5806;48.748;9.278;2024-01-30T01:17:56;9.10;;;6.87;;
11498;SDS011;5806;48.748;9.278;2024-01-30T01:20:24;9.63;;;6.43;;
11498;SDS011;5806;48.748;9.278;2024-01-30T01:22:51;9.47;;;7.17;;
11498;SDS011;5806;48.748;9.278;2024-01-30T01:25:19;8.83;;;7.17;;
11498;SDS011;5806;48.748;9.278;2024-01-30T01:27:47;8.30;;;6.97;;
11498;SDS011;5806;48.748;9.278;2024-01-30T01:30:16;10.30;;;7.50;;
11498;SDS011;5806;48.748;9.278;2024-01-30T01:32:51;11.90;;;6.73;;
11498;SDS011;5806;48.748;9.278;2024-01-30T01:35:22;9.50;;;6.70;;
11498;SDS011;5806;48.748;9.278;2024-01-30T01:37:53;11.17;;;7.10;;
11498;SDS011;5806;48.748;9.278;2024-01-30T01:40:24;9.90;;;7.60;;
11498;SDS011;5806;48.748;9.278;2024-01-30T01:42:52;9.60;;;6.87;;
11498;SDS011;5806;48.748;9.278;2024-01-30T01:45:21;9.70;;;7.10;;
11498;SDS011;5806;48.748;9.278;2024-01-30T01:47:50;10.07;;;6.90;;
11498;SDS011;5806;48.748;9.278;2024-01-30T01:50:18;9.10;;;7.03;;
11498;SDS011;5806;48.748;9.278;2024-01-30T01:52:47;12.23;;;7.13;;
11498;SDS011;5806;48.748;9.278;2024-01-30T01:55:16;11.73;;;7.13;;
11498;SDS011;5806;48.748;9.278;2024-01-30T01:57:47;10.67;;;7.23;;
11498;SDS011;5806;48.748;9.278;2024-01-30T02:00:15;9.20;;;7.07;;
11498;SDS011;5806;48.748;9.278;2024-01-30T02:02:43;9.47;;;6.80;;
11498;SDS011;5806;48.748;9.278;2024-01-30T02:05:12;9.87;;;6.83;;
11498;SDS011;5806;48.748;9.278;2024-01-30T02:07:40;9.47;;;6.73;;
11498;SDS011;5806;48.748;9.278;2024-01-30T02:10:08;10.80;;;6.80;;
11498;SDS011;5806;48.748;9.278;2024-01-30T02:12:36;8.47;;;6.90;;
11498;SDS011;5806;48.748;9.278;2024-01-30T02:15:04;9.40;;;7.03;;
11498;SDS011;5806;48.748;9.278;2024-01-30T02:17:33;12.37;;;6.70;;
11498;SDS011;5806;48.748;9.278;2024-01-30T02:20:01;8.90;;;5.90;;
11498;SDS011;5806;48.748;9.278;2024-01-30T02:22:28;9.77;;;7.03;;
11498;SDS011;5806;48.748;9.278;2024-01-30T02:24:57;11.13;;;7.00;;
11498;SDS011;5806;48.748;9.278;2024-01-30T02:27:24;9.83;;;6.43;;
11498;SDS011;5806;48.748;9.278;2024-01-30T02:29:51;10.00;;;7.00;;
11498;SDS011;5806;48.748;9.278;2024-01-30T02:32:19;11.30;;;7.17;;
11498;SDS011;5806;48.748;9.278;2024-01-30T02:34:46;8.57;;;6.80;;
11498;SDS011;5806;48.748;9.278;2024-01-30T02:37:14;9.20;;;6.37;;
11498;SDS011;5806;48.748;9.278;2024-01-30T02:39:41;10.63;;;6.30;;
11498;SDS011;5806;48.748;9.278;2024-01-30T02:42:08;8.47;;;6.33;;
11498;SDS011;5806;48.748;9.278;2024-01-30T02:44:36;8.20;;;6.30;;
11498;SDS011;5806;48.748;9.278;2024-01-30T02:47:03;10.23;;;7.13;;
11498;SDS011;5806;48.748;9.278;2024-01-30T02:49:31;11.17;;;6.23;;
11498;SDS011;5806;48.748;9.278;2024-01-30T02:51:58;10.87;;;7.40;;
11498;SDS011;5806;48.748;9.278;2024-01-30T02:54:26;11.80;;;6.90;;
11498;SDS011;5806;48.748;9.278;2024-01-30T02:56:53;7.60;;;6.07;;
11498;SDS011;5806;48.748;9.278;2024-01-30T02:59:20;10.07;;;6.70;;
11498;SDS011;5806;48.748;9.278;2024-01-30T03:01:48;9.17;;;6.47;;
11498;SDS011;5806;48.748;9.278;2024-01-30T03:04:15;8.73;;;6.50;;
11498;SDS011;5806;48.748;9.278;2024-01-30T03:06:46;7.97;;;6.40;;
11498;SDS011;5806;48.748;9.278;2024-01-30T03:09:13;8.17;;;6.23;;
11498;SDS011;5806;48.748;9.278;2024-01-30T03:11:42;8.67;;;6.53;;
11498;SDS011;5806;48.748;9.278;2024-01-30T03:14:09;9.83;;;6.50;;
11498;SDS011;5806;48.748;9.278;2024-01-30T03:16:37;10.13;;;6.27;;
11498;SDS011;5806;48.748;9.278;2024-01-30T03:19:09;9.10;;;6.90;;
11498;SDS011;5806;48.748;9.278;2024-01-30T03:21:34;8.97;;;6.60;;
11498;SDS011;5806;48.748;9.278;2024-01-30T03:24:02;8.33;;;6.50;;
11498;SDS011;5806;48.748;9.278;2024-01-30T03:26:29;7.47;;;6.07;;
11498;SDS011;5806;48.748;9.278;2024-01-30T03:28:57;9.30;;;7.00;;
11498;SDS011;5806;48.748;9.278;2024-01-30T03:31:24;9.33;;;6.63;;
11498;SDS011;5806;48.748;9.278;2024-01-30T03:33:52;7.70;;;6.13;;
11498;SDS011;5806;48.748;9.278;2024-01-30T03:36:19;12.47;;;6.50;;
11498;SDS011;5806;48.748;9.278;2024-01-30T03:38:47;7.80;;;6.50;;
11498;SDS011;5806;48.748;9.278;2024-01-30T03:41:14;12.40;;;6.57;;
11498;SDS011;5806;48.748;9.278;2024-01-30T03:43:41;10.30;;;6.43;;
11498;SDS011;5806;48.748;9.278;2024-01-30T03:46:09;8.67;;;6.33;;
11498;SDS011;5806;48.748;9.278;2024-01-30T03:48:38;10.37;;;6.60;;
11498;SDS011;5806;48.748;9.278;2024-01-30T03:51:06;9.10;;;6.17;;
11498;SDS011;5806;48.748;9.278;2024-01-30T03:53:33;11.20;;;6.63;;
11498;SDS011;5806;48.748;9.278;2024-01-30T03:56:01;8.77;;;6.40;;
11498;SDS011;5806;48.748;9.278;2024-01-30T03:58:28;9.47;;;6.50;;
11498;SDS011;5806;48.748;9.278;2024-01-30T04:00:56;7.83;;;6.00;;
11498;SDS011;5806;48.748;9.278;2024-01-30T04:03:23;11.27;;;7.20;;
11498;SDS011;5806;48.748;9.278;2024-01-30T04:05:53;9.23;;;6.70;;
11498;SDS011;5806;48.748;9.278;2024-01-30T04:08:21;9.73;;;6.37;;
11498;SDS011;5806;48.748;9.278;2024-01-30T04:10:48;10.23;;;6.17;;
11498;SDS011;5806;48.748;9.278;2024-01-30T04:13:16;9.97;;;7.03;;
11498;SDS011;5806;48.748;9.278;2024-01-30T04:15:43;8.53;;;6.17;;
11498;SDS011;5806;48.748;9.278;2024-01-30T04:18:10;9.60;;;6.70;;
11498;SDS011;5806;48.748;9.278;2024-01-30T04:20:38;7.73;;;6.20;;
11498;SDS011;5806;48.748;9.278;2024-01-30T04:23:05;8.03;;;6.10;;
11498;SDS011;5806;48.748;9.278;2024-01-30T04:25:33;9.50;;;6.60;;
11498;SDS011;5806;48.748;9.278;2024-01-30T04:28:00;8.80;;;6.20;;
11498;SDS011;5806;48.748;9.278;2024-01-30T04:30:28;8.87;;;5.80;;
11498;SDS011;5806;48.748;9.278;2024-01-30T04:32:55;7.20;;;6.13;;
11498;SDS011;5806;48.748;9.278;2024-01-30T04:35:22;9.30;;;6.27;;
11498;SDS011;5806;48.748;9.278;2024-01-30T04:37:51;8.13;;;6.47;;
11498;SDS011;5806;48.748;9.278;2024-01-30T04:40:20;8.27;;;5.70;;
11498;SDS011;5806;48.748;9.278;2024-01-30T04:42:47;7.63;;;5.50;;
11498;SDS011;5806;48.748;9.278;2024-01-30T04:45:15;7.13;;;5.43;;
11498;SDS011;5806;48.748;9.278;2024-01-30T04:47:42;9.37;;;5.53;;
11498;SDS011;5806;48.748;9.278;2024-01-30T04:50:09;9.63;;;5.97;;
11498;SDS011;5806;48.748;9.278;2024-01-30T04:52:37;8.90;;;5.93;;
11498;SDS011;5806;48.748;9.278;2024-01-30T04:55:04;7.40;;;5.73;;
11498;SDS011;5806;48.748;9.278;2024-01-30T04:57:32;6.80;;;5.70;;
11498;SDS011;5806;48.748;9.278;2024-01-30T05:00:00;7.20;;;5.70;;
11498;SDS011;5806;48.748;9.278;2024-01-30T05:02:27;8.40;;;5.53;;
11498;SDS011;5806;48.748;9.278;2024-01-30T05:04:55;9.03;;;6.03;;
11498;SDS011;5806;48.748;9.278;2024-01-30T05:07:24;7.43;;;5.70;;
11498;SDS011;5806;48.748;9.278;2024-01-30T05:09:52;7.83;;;5.53;;
11498;SDS011;5806;48.748;9.278;2024-01-30T05:12:20;6.93;;;5.80;;
11498;SDS011;5806;48.748;9.278;2024-01-30T05:14:47;9.60;;;6.23;;
11498;SDS011;5806;48.748;9.278;2024-01-30T05:17:14;6.57;;;5.23;;
11498;SDS011;5806;48.748;9.278;2024-01-30T05:19:42;9.10;;;5.10;;
11498;SDS011;5806;48.748;9.278;2024-01-30T05:22:10;5.20;;;4.70;;
11498;SDS011;5806;48.748;9.278;2024-01-30T05:24:39;7.40;;;4.97;;
11498;SDS011;5806;48.748;9.278;2024-01-30T05:27:08;7.73;;;5.23;;
11498;SDS011;5806;48.748;9.278;2024-01-30T05:29:35;7.77;;;5.43;;
11498;SDS011;5806;48.748;9.278;2024-01-30T05:32:03;7.17;;;5.47;;
11498;SDS011;5806;48.748;9.278;2024-01-30T05:34:32;6.40;;;5.33;;
11498;SDS011;5806;48.748;9.278;2024-01-30T05:36:59;8.27;;;5.63;;
11498;SDS011;5806;48.748;9.278;2024-01-30T05:39:27;8.03;;;5.37;;
11498;SDS011;5806;48.748;9.278;2024-01-30T05:41:55;8.20;;;5.50;;
11498;SDS011;5806;48.748;9.278;2024-01-30T05:44:22;5.80;;;5.20;;
11498;SDS011;5806;48.748;9.278;2024-01-30T05:46:49;8.13;;;6.00;;
11498;SDS011;5806;48.748;9.278;2024-01-30T05:49:17;6.10;;;5.10;;
11498;SDS011;5806;48.748;9.278;2024-01-30T05:51:44;10.77;;;6.03;;
11498;SDS011;5806;48.748;9.278;2024-01-30T05:54:12;7.33;;;6.00;;
11498;SDS011;5806;48.748;9.278;2024-01-30T05:56:39;7.47;;;5.50;;
11498;SDS011;5806;48.748;9.278;2024-01-30T05:59:06;7.20;;;5.80;;
11498;SDS011;5806;48.748;9.278;2024-01-30T06:01:34;8.53;;;6.27;;
11498;SDS011;5806;48.748;9.278;2024-01-30T06:04:01;10.57;;;6.13;;
11498;SDS011;5806;48.748;9.278;2024-01-30T06:06:29;8.03;;;5.73;;
11498;SDS011;5806;48.748;9.278;2024-01-30T06:08:56;14.37;;;6.50;;
11498;SDS011;5806;48.748;9.278;2024-01-30T06:11:24;9.30;;;6.00;;
11498;SDS011;5806;48.748;9.278;2024-01-30T06:13:51;8.07;;;5.60;;
11498;SDS011;5806;48.748;9.278;2024-01-30T06:16:18;7.50;;;6.30;;
11498;SDS011;5806;48.748;9.278;2024-01-30T06:18:47;7.10;;;5.63;;
11498;SDS011;5806;48.748;9.278;2024-01-30T06:21:15;9.93;;;6.60;;
11498;SDS011;5806;48.748;9.278;2024-01-30T06:23:42;7.27;;;6.00;;
11498;SDS011;5806;48.748;9.278;2024-01-30T06:26:09;9.67;;;6.00;;
11498;SDS011;5806;48.748;9.278;2024-01-30T06:28:37;7.30;;;5.73;;
11498;SDS011;5806;48.748;9.278;2024-01-30T06:31:04;7.97;;;5.80;;
11498;SDS011;5806;48.748;9.278;2024-01-30T06:33:32;8.67;;;5.20;;
11498;SDS011;5806;48.748;9.278;2024-01-30T06:35:59;7.70;;;5.63;;
11498;SDS011;5806;48.748;9.278;2024-01-30T06:38:26;6.87;;;5.60;;
11498;SDS011;5806;48.748;9.278;2024-01-30T06:40:54;6.80;;;5.00;;
11498;SDS011;5806;48.748;9.278;2024-01-30T06:43:22;8.47;;;5.73;;
11498;SDS011;5806;48.748;9.278;2024-01-30T06:45:49;8.90;;;5.60;;
11498;SDS011;5806;48.748;9.278;2024-01-30T06:48:17;8.60;;;5.77;;
11498;SDS011;5806;48.748;9.278;2024-01-30T06:50:44;7.77;;;5.83;;
11498;SDS011;5806;48.748;9.278;2024-01-30T06:53:13;7.97;;;5.90;;
11498;SDS011;5806;48.748;9.278;2024-01-30T06:55:40;9.17;;;5.70;;
11498;SDS011;5806;48.748;9.278;2024-01-30T06:58:08;7.30;;;5.23;;
11498;SDS011;5806;48.748;9.278;2024-01-30T07:00:35;8.17;;;5.50;;
11498;SDS011;5806;48.748;9.278;2024-01-30T07:03:03;7.23;;;5.37;;
11498;SDS011;5806;48.748;9.278;2024-01-30T07:05:31;7.13;;;5.43;;
11498;SDS011;5806;48.748;9.278;2024-01-30T07:07:58;10.90;;;5.63;;
11498;SDS011;5806;48.748;9.278;2024-01-30T07:10:26;7.37;;;5.53;;
11498;SDS011;5806;48.748;9.278;2024-01-30T07:12:53;10.00;;;5.93;;
11498;SDS011;5806;48.748;9.278;2024-01-30T07:15:21;7.63;;;5.53;;
11498;SDS011;5806;48.748;9.278;2024-01-30T07:17:48;8.43;;;5.83;;
11498;SDS011;5806;48.748;9.278;2024-01-30T07:20:16;10.23;;;5.60;;
11498;SDS011;5806;48.748;9.278;2024-01-30T07:22:45;9.63;;;6.80;;
11498;SDS011;5806;48.748;9.278;2024-01-30T07:25:13;9.53;;;5.87;;
11498;SDS011;5806;48.748;9.278;2024-01-30T07:27:42;8.03;;;6.43;;
11498;SDS011;5806;48.748;9.278;2024-01-30T07:30:09;7.90;;;5.90;;
11498;SDS011;5806;48.748;9.278;2024-01-30T07:32:37;9.17;;;5.93;;
11498;SDS011;5806;48.748;9.278;2024-01-30T07:35:04;9.43;;;6.13;;
11498;SDS011;5806;48.748;9.278;2024-01-30T07:37:32;10.23;;;6.13;;
11498;SDS011;5806;48.748;9.278;2024-01-30T07:39:59;7.67;;;5.77;;
11498;SDS011;5806;48.748;9.278;2024-01-30T07:42:28;6.50;;;5.83;;
11498;SDS011;5806;48.748;9.278;2024-01-30T07:44:55;9.47;;;6.60;;
11498;SDS011;5806;48.748;9.278;2024-01-30T07:47:23;9.10;;;5.63;;
11498;SDS011;5806;48.748;9.278;2024-01-30T07:49:50;7.73;;;6.10;;
11498;SDS011;5806;48.748;9.278;2024-01-30T07:52:18;8.17;;;5.97;;
11498;SDS011;5806;48.748;9.278;2024-01-30T07:54:45;8.27;;;5.57;;
11498;SDS011;5806;48.748;9.278;2024-01-30T07:57:16;7.50;;;5.40;;
11498;SDS011;5806;48.748;9.278;2024-01-30T07:59:44;6.97;;;5.60;;
11498;SDS011;5806;48.748;9.278;2024-01-30T08:02:12;7.47;;;6.17;;
11498;SDS011;5806;48.748;9.278;2024-01-30T08:04:40;9.57;;;6.43;;
11498;SDS011;5806;48.748;9.278;2024-01-30T08:07:07;7.10;;;5.73;;
11498;SDS011;5806;48.748;9.278;2024-01-30T08:09:35;10.83;;;7.07;;
11498;SDS011;5806;48.748;9.278;2024-01-30T08:12:02;8.30;;;6.60;;
11498;SDS011;5806;48.748;9.278;2024-01-30T08:14:30;10.77;;;6.67;;
11498;SDS011;5806;48.748;9.278;2024-01-30T08:16:58;9.43;;;6.40;;
11498;SDS011;5806;48.748;9.278;2024-01-30T08:19:25;8.13;;;5.97;;
11498;SDS011;5806;48.748;9.278;2024-01-30T08:21:53;9.57;;;6.27;;
11498;SDS011;5806;48.748;9.278;2024-01-30T08:24:21;7.20;;;5.97;;
11498;SDS011;5806;48.748;9.278;2024-01-30T08:26:48;8.27;;;6.57;;
11498;SDS011;5806;48.748;9.278;2024-01-30T08:29:16;10.60;;;6.80;;
11498;SDS011;5806;48.748;9.278;2024-01-30T08:31:43;7.00;;;6.10;;
11498;SDS011;5806;48.748;9.278;2024-01-30T08:34:11;10.30;;;6.57;;
11498;SDS011;5806;48.748;9.278;2024-01-30T08:36:39;8.33;;;6.27;;
11498;SDS011;5806;48.748;9.278;2024-01-30T08:39:06;7.93;;;6.40;;
11498;SDS011;5806;48.748;9.278;2024-01-30T08:41:34;9.20;;;6.00;;
11498;SDS011;5806;48.748;9.278;2024-01-30T08:44:01;8.60;;;6.30;;
11498;SDS011;5806;48.748;9.278;2024-01-30T08:46:29;9.03;;;6.13;;
11498;SDS011;5806;48.748;9.278;2024-01-30T08:48:57;12.20;;;6.53;;
11498;SDS011;5806;48.748;9.278;2024-01-30T08:51:24;9.90;;;5.90;;
11498;SDS011;5806;48.748;9.278;2024-01-30T08:53:52;9.07;;;6.17;;
11498;SDS011;5806;48.748;9.278;2024-01-30T08:56:22;10.37;;;6.50;;
11498;SDS011;5806;48.748;9.278;2024-01-30T08:58:50;9.93;;;6.80;;
11498;SDS011;5806;48.748;9.278;2024-01-30T09:01:17;8.40;;;6.43;;
11498;SDS011;5806;48.748;9.278;2024-01-30T09:03:45;8.50;;;6.23;;
11498;SDS011;5806;48.748;9.278;2024-01-30T09:06:12;10.23;;;6.43;;
11498;SDS011;5806;48.748;9.278;2024-01-30T09:08:40;9.73;;;6.43;;
11498;SDS011;5806;48.748;9.278;2024-01-30T09:11:14;8.70;;;6.30;;
11498;SDS011;5806;48.748;9.278;2024-01-30T09:13:42;6.63;;;5.87;;
11498;SDS011;5806;48.748;9.278;2024-01-30T09:16:09;9.73;;;6.30;;
11498;SDS011;5806;48.748;9.278;2024-01-30T09:18:36;8.93;;;6.33;;
11498;SDS011;5806;48.748;9.278;2024-01-30T09:21:04;9.30;;;5.80;;
11498;SDS011;5806;48.748;9.278;2024-01-30T09:23:32;8.43;;;6.23;;
11498;SDS011;5806;48.748;9.278;2024-01-30T09:25:59;6.20;;;5.40;;
11498;SDS011;5806;48.748;9.278;2024-01-30T09:28:27;8.47;;;5.80;;
11498;SDS011;5806;48.748;9.278;2024-01-30T09:30:55;9.33;;;6.33;;
11498;SDS011;5806;48.748;9.278;2024-01-30T09:33:23;7.37;;;6.17;;
11498;SDS011;5806;48.748;9.278;2024-01-30T09:35:50;8.53;;;6.10;;
11498;SDS011;5806;48.748;9.278;2024-01-30T09:38:17;6.63;;;5.63;;
11498;SDS011;5806;48.748;9.278;2024-01-30T09:40:46;8.47;;;5.90;;
11498;SDS011;5806;48.748;9.278;2024-01-30T09:43:16;9.57;;;6.13;;
11498;SDS011;5806;48.748;9.278;2024-01-30T09:45:45;10.97;;;6.33;;
11498;SDS011;5806;48.748;9.278;2024-01-30T09:48:14;8.63;;;6.07;;
11498;SDS011;5806;48.748;9.278;2024-01-30T09:50:42;9.23;;;6.47;;
11498;SDS011;5806;48.748;9.278;2024-01-30T09:53:10;8.63;;;6.10;;
11498;SDS011;5806;48.748;9.278;2024-01-30T09:55:39;8.43;;;5.83;;
11498;SDS011;5806;48.748;9.278;2024-01-30T09:58:09;8.03;;;6.03;;
11498;SDS011;5806;48.748;9.278;2024-01-30T10:00:38;10.07;;;6.17;;
11498;SDS011;5806;48.748;9.278;2024-01-30T10:03:09;7.77;;;5.50;;
11498;SDS011;5806;48.748;9.278;2024-01-30T10:05:36;7.53;;;6.17;;
11498;SDS011;5806;48.748;9.278;2024-01-30T10:08:06;7.63;;;5.77;;
11498;SDS011;5806;48.748;9.278;2024-01-30T10:10:34;10.33;;;6.50;;
11498;SDS011;5806;48.748;9.278;2024-01-30T10:13:02;7.23;;;5.80;;
11498;SDS011;5806;48.748;9.278;2024-01-30T10:15:29;7.70;;;6.07;;
11498;SDS011;5806;48.748;9.278;2024-01-30T10:17:57;10.60;;;6.37;;
11498;SDS011;5806;48.748;9.278;2024-01-30T10:20:24;9.00;;;5.93;;
11498;SDS011;5806;48.748;9.278;2024-01-30T10:22:52;9.00;;;6.20;;
11498;SDS011;5806;48.748;9.278;2024-01-30T10:25:21;8.47;;;5.93;;
11498;SDS011;5806;48.748;9.278;2024-01-30T10:27:58;8.17;;;5.90;;
11498;SDS011;5806;48.748;9.278;2024-01-30T10:30:21;8.83;;;6.40;;
11498;SDS011;5806;48.748;9.278;2024-01-30T10:32:48;9.83;;;6.97;;
11498;SDS011;5806;48.748;9.278;2024-01-30T10:35:17;8.53;;;6.27;;
11498;SDS011;5806;48.748;9.278;2024-01-30T10:37:44;6.73;;;5.97;;
11498;SDS011;5806;48.748;9.278;2024-01-30T10:40:16;9.23;;;5.87;;
11498;SDS011;5806;48.748;9.278;2024-01-30T10:42:45;7.57;;;5.80;;
11498;SDS011;5806;48.748;9.278;2024-01-30T10:45:13;8.23;;;5.83;;
11498;SDS011;5806;48.748;9.278;2024-01-30T10:48:04;8.37;;;6.70;;
11498;SDS011;5806;48.748;9.278;2024-01-30T10:50:18;6.40;;;5.60;;
11498;SDS011;5806;48.748;9.278;2024-01-30T10:52:47;8.20;;;5.90;;
11498;SDS011;5806;48.748;9.278;2024-01-30T10:55:15;10.77;;;5.87;;
11498;SDS011;5806;48.748;9.278;2024-01-30T10:57:44;8.37;;;6.10;;
11498;SDS011;5806;48.748;9.278;2024-01-30T11:00:12;8.90;;;5.77;;
11498;SDS011;5806;48.748;9.278;2024-01-30T11:02:42;8.67;;;5.37;;
11498;SDS011;5806;48.748;9.278;2024-01-30T11:05:11;8.97;;;5.80;;
11498;SDS011;5806;48.748;9.278;2024-01-30T11:07:41;7.77;;;5.37;;
11498;SDS011;5806;48.748;9.278;2024-01-30T11:10:08;8.10;;;5.67;;
11498;SDS011;5806;48.748;9.278;2024-01-30T11:12:39;8.27;;;5.77;;
11498;SDS011;5806;48.748;9.278;2024-01-30T11:15:09;8.40;;;5.90;;
11498;SDS011;5806;48.748;9.278;2024-01-30T11:17:45;6.93;;;5.43;;
11498;SDS011;5806;48.748;9.278;2024-01-30T11:20:29;10.70;;;5.70;;
11498;SDS011;5806;48.748;9.278;2024-01-30T11:22:58;8.00;;;5.90;;
11498;SDS011;5806;48.748;9.278;2024-01-30T11:25:28;10.20;;;5.53;;
11498;SDS011;5806;48.748;9.278;2024-01-30T11:27:56;9.30;;;5.83;;
11498;SDS011;5806;48.748;9.278;2024-01-30T11:30:28;7.40;;;5.43;;
11498;SDS011;5806;48.748;9.278;2024-01-30T11:33:06;7.47;;;5.80;;
11498;SDS011;5806;48.748;9.278;2024-01-30T11:35:40;7.70;;;5.87;;
11498;SDS011;5806;48.748;9.278;2024-01-30T11:38:09;7.80;;;5.50;;
11498;SDS011;5806;48.748;9.278;2024-01-30T11:40:38;7.83;;;5.40;;
11498;SDS011;5806;48.748;9.278;2024-01-30T11:43:07;8.20;;;5.40;;
11498;SDS011;5806;48.748;9.278;2024-01-30T11:45:35;8.43;;;5.83;;
11498;SDS011;5806;48.748;9.278;2024-01-30T11:48:03;11.03;;;6.53;;
11498;SDS011;5806;48.748;9.278;2024-01-30T11:50:32;7.70;;;5.67;;
11498;SDS011;5806;48.748;9.278;2024-01-30T11:53:00;9.50;;;5.83;;
11498;SDS011;5806;48.748;9.278;2024-01-30T11:55:33;7.73;;;5.17;;
11498;SDS011;5806;48.748;9.278;2024-01-30T11:58:02;6.60;;;5.37;;
11498;SDS011;5806;48.748;9.278;2024-01-30T12:00:26;6.97;;;5.27;;
11498;SDS011;5806;48.748;9.278;2024-01-30T12:02:55;7.33;;;5.13;;
11498;SDS011;5806;48.748;9.278;2024-01-30T12:05:26;7.27;;;5.40;;
11498;SDS011;5806;48.748;9.278;2024-01-30T12:07:54;7.03;;;5.47;;
11498;SDS011;5806;48.748;9.278;2024-01-30T12:10:23;9.60;;;5.87;;
11498;SDS011;5806;48.748;9.278;2024-01-30T12:12:51;8.37;;;5.57;;
11498;SDS011;5806;48.748;9.278;2024-01-30T12:15:18;6.80;;;5.43;;
11498;SDS011;5806;48.748;9.278;2024-01-30T12:17:48;6.13;;;5.10;;
11498;SDS011;5806;48.748;9.278;2024-01-30T12:20:21;6.43;;;4.97;;
11498;SDS011;5806;48.748;9.278;2024-01-30T12:22:46;6.63;;;5.60;;
11498;SDS011;5806;48.748;9.278;2024-01-30T12:25:18;7.37;;;5.50;;
11498;SDS011;5806;48.748;9.278;2024-01-30T12:27:49;8.77;;;5.23;;
11498;SDS011;5806;48.748;9.278;2024-01-30T12:30:17;5.83;;;4.67;;
11498;SDS011;5806;48.748;9.278;2024-01-30T12:32:46;8.30;;;5.30;;
11498;SDS011;5806;48.748;9.278;2024-01-30T12:35:17;7.30;;;5.30;;
11498;SDS011;5806;48.748;9.278;2024-01-30T12:37:46;8.07;;;5.43;;
11498;SDS011;5806;48.748;9.278;2024-01-30T12:40:14;8.53;;;5.30;;
11498;SDS011;5806;48.748;9.278;2024-01-30T12:42:42;8.13;;;5.80;;
11498;SDS011;5806;48.748;9.278;2024-01-30T12:45:11;7.83;;;5.33;;
11498;SDS011;5806;48.748;9.278;2024-01-30T12:47:41;8.10;;;4.93;;
11498;SDS011;5806;48.748;9.278;2024-01-30T12:50:08;7.10;;;5.20;;
11498;SDS011;5806;48.748;9.278;2024-01-30T12:52:37;9.07;;;5.33;;
11498;SDS011;5806;48.748;9.278;2024-01-30T12:55:05;8.10;;;4.97;;
11498;SDS011;5806;48.748;9.278;2024-01-30T12:57:32;6.97;;;5.30;;
11498;SDS011;5806;48.748;9.278;2024-01-30T13:00:00;9.43;;;4.73;;
11498;SDS011;5806;48.748;9.278;2024-01-30T13:02:28;11.37;;;5.53;;
11498;SDS011;5806;48.748;9.278;2024-01-30T13:04:57;6.73;;;5.20;;
11498;SDS011;5806;48.748;9.278;2024-01-30T13:07:24;7.17;;;5.40;;
11498;SDS011;5806;48.748;9.278;2024-01-30T13:09:52;8.50;;;5.27;;
11498;SDS011;5806;48.748;9.278;2024-01-30T13:12:19;7.70;;;5.20;;
11498;SDS011;5806;48.748;9.278;2024-01-30T13:14:46;8.17;;;5.07;;
11498;SDS011;5806;48.748;9.278;2024-01-30T13:17:14;6.57;;;5.43;;
11498;SDS011;5806;48.748;9.278;2024-01-30T13:19:41;8.70;;;5.90;;
11498;SDS011;5806;48.748;9.278;2024-01-30T13:22:09;7.40;;;6.10;;
11498;SDS011;5806;48.748;9.278;2024-01-30T13:24:36;9.50;;;6.03;;
11498;SDS011;5806;48.748;9.278;2024-01-30T13:27:04;9.00;;;5.63;;
11498;SDS011;5806;48.748;9.278;2024-01-30T13:29:32;8.50;;;6.03;;
11498;SDS011;5806;48.748;9.278;2024-01-30T13:31:59;11.60;;;5.90;;
11498;SDS011;5806;48.748;9.278;2024-01-30T13:34:27;10.73;;;6.07;;
11498;SDS011;5806;48.748;9.278;2024-01-30T13:36:54;7.30;;;5.67;;
11498;SDS011;5806;48.748;9.278;2024-01-30T13:39:22;9.77;;;5.43;;
11498;SDS011;5806;48.748;9.278;2024-01-30T13:41:49;8.33;;;5.67;;
11498;SDS011;5806;48.748;9.278;2024-01-30T13:44:17;10.53;;;6.27;;
11498;SDS011;5806;48.748;9.278;2024-01-30T13:46:44;10.50;;;6.80;;
11498;SDS011;5806;48.748;9.278;2024-01-30T13:49:12;10.87;;;6.67;;
11498;SDS011;5806;48.748;9.278;2024-01-30T13:51:39;12.70;;;6.73;;
11498;SDS011;5806;48.748;9.278;2024-01-30T13:54:07;9.10;;;6.50;;
11498;SDS011;5806;48.748;9.278;2024-01-30T13:56:34;9.33;;;6.17;;
11498;SDS011;5806;48.748;9.278;2024-01-30T13:59:02;10.73;;;7.13;;
11498;SDS011;5806;48.748;9.278;2024-01-30T14:01:31;11.03;;;6.47;;
11498;SDS011;5806;48.748;9.278;2024-01-30T14:03:59;9.13;;;6.60;;
11498;SDS011;5806;48.748;9.278;2024-01-30T14:06:26;12.97;;;6.90;;
11498;SDS011;5806;48.748;9.278;2024-01-30T14:08:53;9.60;;;6.87;;
11498;SDS011;5806;48.748;9.278;2024-01-30T14:11:21;9.20;;;6.20;;
11498;SDS011;5806;48.748;9.278;2024-01-30T14:13:48;10.00;;;6.30;;
11498;SDS011;5806;48.748;9.278;2024-01-30T14:16:16;10.97;;;5.83;;
11498;SDS011;5806;48.748;9.278;2024-01-30T14:18:43;10.40;;;7.10;;
11498;SDS011;5806;48.748;9.278;2024-01-30T14:21:11;8.27;;;5.67;;
11498;SDS011;5806;48.748;9.278;2024-01-30T14:23:38;7.70;;;5.50;;
11498;SDS011;5806;48.748;9.278;2024-01-30T14:26:05;9.50;;;6.03;;
11498;SDS011;5806;48.748;9.278;2024-01-30T14:28:33;10.10;;;5.37;;
11498;SDS011;5806;48.748;9.278;2024-01-30T14:31:00;8.60;;;4.63;;
11498;SDS011;5806;48.748;9.278;2024-01-30T14:33:29;8.97;;;5.47;;
11498;SDS011;5806;48.748;9.278;2024-01-30T14:35:56;9.50;;;5.53;;
11498;SDS011;5806;48.748;9.278;2024-01-30T14:38:23;10.33;;;5.10;;
11498;SDS011;5806;48.748;9.278;2024-01-30T14:40:51;7.53;;;4.60;;
11498;SDS011;5806;48.748;9.278;2024-01-30T14:43:18;6.33;;;4.80;;
11498;SDS011;5806;48.748;9.278;2024-01-30T14:45:46;10.57;;;5.33;;
11498;SDS011;5806;48.748;9.278;2024-01-30T14:48:15;6.10;;;4.87;;
11498;SDS011;5806;48.748;9.278;2024-01-30T14:50:42;8.60;;;5.20;;
11498;SDS011;5806;48.748;9.278;2024-01-30T14:53:10;8.03;;;5.13;;
11498;SDS011;5806;48.748;9.278;2024-01-30T14:55:37;10.37;;;6.13;;
11498;SDS011;5806;48.748;9.278;2024-01-30T14:58:05;8.53;;;5.40;;
11498;SDS011;5806;48.748;9.278;2024-01-30T15:00:32;9.47;;;5.30;;
11498;SDS011;5806;48.748;9.278;2024-01-30T15:03:01;10.13;;;5.70;;